sensor_id;sensor_type;location;lat;lon;timestamp;P1;durP1;ratioP1;P2;durP2;ratioP2
74042;SDS011;62384;53.600;10.040;2022-09-27T00:00:03;4.25;;;2.88;;
74042;SDS011;62384;53.600;10.040;2022-09-27T00:02:29;6.72;;;2.30;;
74042;SDS011;62384;53.600;10.040;2022-09-27T00:04:55;4.57;;;2.45;;
74042;SDS011;62384;53.600;10.040;2022-09-27T00:07:22;5.65;;;2.80;;
74042;SDS011;62384;53.600;10.040;2022-09-27T00:09:47;5.15;;;2.50;;
74042;SDS011;62384;53.600;10.040;2022-09-27T00:12:13;3.55;;;2.20;;
74042;SDS011;62384;53.600;10.040;2022-09-27T00:14:38;5.22;;;2.60;;
74042;SDS011;62384;53.600;10.040;2022-09-27T00:17:04;12.75;;;2.72;;
74042;SDS011;62384;53.600;10.040;2022-09-27T00:19:29;3.70;;;2.20;;
74042;SDS011;62384;53.600;10.040;2022-09-27T00:21:55;6.05;;;2.75;;
74042;SDS011;62384;53.600;10.040;2022-09-27T00:24:21;5.90;;;2.70;;
74042;SDS011;62384;53.600;10.040;2022-09-27T00:26:47;3.22;;;2.10;;
74042;SDS011;62384;53.600;10.040;2022-09-27T00:29:14;5.63;;;2.47;;
74042;SDS011;62384;53.600;10.040;2022-09-27T00:31:41;3.78;;;2.42;;
74042;SDS011;62384;53.600;10.040;2022-09-27T00:34:09;4.15;;;2.33;;
74042;SDS011;62384;53.600;10.040;2022-09-27T00:36:42;3.80;;;2.38;;
74042;SDS011;62384;53.600;10.040;2022-09-27T00:39:07;3.67;;;2.33;;
74042;SDS011;62384;53.600;10.040;2022-09-27T00:41:39;4.93;;;2.70;;
74042;SDS011;62384;53.600;10.040;2022-09-27T00:49:32;5.18;;;2.33;;
74042;SDS011;62384;53.600;10.040;2022-09-27T00:52:03;4.13;;;2.20;;
74042;SDS011;62384;53.600;10.040;2022-09-27T00:54:33;3.10;;;1.92;;
74042;SDS011;62384;53.600;10.040;2022-09-27T00:57:02;3.58;;;2.35;;
74042;SDS011;62384;53.600;10.040;2022-09-27T00:59:33;4.22;;;2.35;;
74042;SDS011;62384;53.600;10.040;2022-09-27T01:02:07;3.15;;;2.25;;
74042;SDS011;62384;53.600;10.040;2022-09-27T01:04:33;3.75;;;2.55;;
74042;SDS011;62384;53.600;10.040;2022-09-27T01:07:01;6.25;;;3.13;;
74042;SDS011;62384;53.600;10.040;2022-09-27T01:09:27;4.55;;;2.53;;
74042;SDS011;62384;53.600;10.040;2022-09-27T01:11:55;3.72;;;2.03;;
74042;SDS011;62384;53.600;10.040;2022-09-27T01:14:37;3.97;;;2.40;;
74042;SDS011;62384;53.600;10.040;2022-09-27T01:20:18;5.85;;;2.20;;
74042;SDS011;62384;53.600;10.040;2022-09-27T01:22:57;3.00;;;2.13;;
74042;SDS011;62384;53.600;10.040;2022-09-27T01:28:46;4.57;;;2.05;;
74042;SDS011;62384;53.600;10.040;2022-09-27T01:39:32;4.20;;;2.00;;
74042;SDS011;62384;53.600;10.040;2022-09-27T01:42:04;5.05;;;2.22;;
74042;SDS011;62384;53.600;10.040;2022-09-27T01:44:37;4.18;;;2.20;;
74042;SDS011;62384;53.600;10.040;2022-09-27T01:47:11;4.53;;;2.45;;
74042;SDS011;62384;53.600;10.040;2022-09-27T01:49:47;3.40;;;1.90;;
74042;SDS011;62384;53.600;10.040;2022-09-27T01:52:19;3.13;;;1.95;;
74042;SDS011;62384;53.600;10.040;2022-09-27T01:54:54;3.75;;;2.25;;
74042;SDS011;62384;53.600;10.040;2022-09-27T01:57:23;6.93;;;2.00;;
74042;SDS011;62384;53.600;10.040;2022-09-27T01:59:58;3.80;;;2.30;;
74042;SDS011;62384;53.600;10.040;2022-09-27T02:02:29;3.75;;;2.25;;
74042;SDS011;62384;53.600;10.040;2022-09-27T02:04:59;3.70;;;2.10;;
74042;SDS011;62384;53.600;10.040;2022-09-27T02:07:29;5.70;;;2.78;;
74042;SDS011;62384;53.600;10.040;2022-09-27T02:10:05;5.00;;;2.93;;
74042;SDS011;62384;53.600;10.040;2022-09-27T02:12:45;3.17;;;2.15;;
74042;SDS011;62384;53.600;10.040;2022-09-27T02:15:34;3.97;;;2.58;;
74042;SDS011;62384;53.600;10.040;2022-09-27T02:18:13;4.75;;;2.45;;
74042;SDS011;62384;53.600;10.040;2022-09-27T02:20:44;3.50;;;2.60;;
74042;SDS011;62384;53.600;10.040;2022-09-27T02:31:15;5.35;;;2.53;;
74042;SDS011;62384;53.600;10.040;2022-09-27T02:33:44;3.63;;;2.25;;
74042;SDS011;62384;53.600;10.040;2022-09-27T02:36:13;8.15;;;3.47;;
74042;SDS011;62384;53.600;10.040;2022-09-27T02:38:39;3.53;;;2.40;;
74042;SDS011;62384;53.600;10.040;2022-09-27T02:41:13;5.18;;;2.70;;
74042;SDS011;62384;53.600;10.040;2022-09-27T02:49:59;6.03;;;2.92;;
74042;SDS011;62384;53.600;10.040;2022-09-27T02:58:00;5.90;;;3.00;;
74042;SDS011;62384;53.600;10.040;2022-09-27T03:06:17;5.57;;;2.55;;
74042;SDS011;62384;53.600;10.040;2022-09-27T03:08:46;7.60;;;3.28;;
74042;SDS011;62384;53.600;10.040;2022-09-27T03:11:12;5.55;;;2.90;;
74042;SDS011;62384;53.600;10.040;2022-09-27T03:13:37;5.13;;;3.00;;
74042;SDS011;62384;53.600;10.040;2022-09-27T03:16:04;5.50;;;3.00;;
74042;SDS011;62384;53.600;10.040;2022-09-27T03:18:31;6.50;;;2.78;;
74042;SDS011;62384;53.600;10.040;2022-09-27T03:20:56;7.18;;;3.00;;
74042;SDS011;62384;53.600;10.040;2022-09-27T03:23:22;7.63;;;3.30;;
74042;SDS011;62384;53.600;10.040;2022-09-27T03:25:47;7.03;;;3.17;;
74042;SDS011;62384;53.600;10.040;2022-09-27T03:28:13;4.88;;;3.00;;
74042;SDS011;62384;53.600;10.040;2022-09-27T03:30:40;4.60;;;2.80;;
74042;SDS011;62384;53.600;10.040;2022-09-27T03:33:06;4.43;;;2.95;;
74042;SDS011;62384;53.600;10.040;2022-09-27T03:35:33;6.50;;;3.25;;
74042;SDS011;62384;53.600;10.040;2022-09-27T03:37:59;5.18;;;3.05;;
74042;SDS011;62384;53.600;10.040;2022-09-27T03:40:24;6.20;;;3.45;;
74042;SDS011;62384;53.600;10.040;2022-09-27T03:42:50;5.82;;;2.75;;
74042;SDS011;62384;53.600;10.040;2022-09-27T03:45:15;7.15;;;3.30;;
74042;SDS011;62384;53.600;10.040;2022-09-27T03:47:41;5.90;;;2.60;;
74042;SDS011;62384;53.600;10.040;2022-09-27T03:50:07;5.18;;;2.83;;
74042;SDS011;62384;53.600;10.040;2022-09-27T03:52:34;4.80;;;2.92;;
74042;SDS011;62384;53.600;10.040;2022-09-27T03:55:00;7.65;;;2.85;;
74042;SDS011;62384;53.600;10.040;2022-09-27T03:57:25;5.57;;;3.00;;
74042;SDS011;62384;53.600;10.040;2022-09-27T03:59:50;5.20;;;2.97;;
74042;SDS011;62384;53.600;10.040;2022-09-27T04:02:17;6.07;;;3.15;;
74042;SDS011;62384;53.600;10.040;2022-09-27T04:04:42;5.85;;;2.88;;
74042;SDS011;62384;53.600;10.040;2022-09-27T04:07:09;7.10;;;3.28;;
74042;SDS011;62384;53.600;10.040;2022-09-27T04:09:34;5.85;;;2.80;;
74042;SDS011;62384;53.600;10.040;2022-09-27T04:12:01;5.88;;;2.90;;
74042;SDS011;62384;53.600;10.040;2022-09-27T04:14:27;5.72;;;2.70;;
74042;SDS011;62384;53.600;10.040;2022-09-27T04:16:53;3.83;;;2.47;;
74042;SDS011;62384;53.600;10.040;2022-09-27T04:19:18;5.65;;;3.13;;
74042;SDS011;62384;53.600;10.040;2022-09-27T04:21:43;6.28;;;3.03;;
74042;SDS011;62384;53.600;10.040;2022-09-27T04:24:09;6.32;;;3.28;;
74042;SDS011;62384;53.600;10.040;2022-09-27T04:26:35;5.03;;;3.25;;
74042;SDS011;62384;53.600;10.040;2022-09-27T04:29:01;5.18;;;3.25;;
74042;SDS011;62384;53.600;10.040;2022-09-27T04:31:26;6.57;;;3.03;;
74042;SDS011;62384;53.600;10.040;2022-09-27T04:33:52;4.38;;;2.70;;
74042;SDS011;62384;53.600;10.040;2022-09-27T04:36:19;6.20;;;3.38;;
74042;SDS011;62384;53.600;10.040;2022-09-27T04:38:54;4.78;;;2.45;;
74042;SDS011;62384;53.600;10.040;2022-09-27T04:41:22;5.07;;;2.80;;
74042;SDS011;62384;53.600;10.040;2022-09-27T04:43:49;4.93;;;3.03;;
74042;SDS011;62384;53.600;10.040;2022-09-27T04:46:15;3.53;;;2.22;;
74042;SDS011;62384;53.600;10.040;2022-09-27T04:48:40;6.63;;;2.80;;
74042;SDS011;62384;53.600;10.040;2022-09-27T04:51:06;4.82;;;3.00;;
74042;SDS011;62384;53.600;10.040;2022-09-27T04:53:33;7.25;;;3.45;;
74042;SDS011;62384;53.600;10.040;2022-09-27T04:55:58;8.88;;;3.58;;
74042;SDS011;62384;53.600;10.040;2022-09-27T04:58:26;5.32;;;3.50;;
74042;SDS011;62384;53.600;10.040;2022-09-27T05:00:51;4.45;;;2.95;;
74042;SDS011;62384;53.600;10.040;2022-09-27T05:03:18;5.68;;;3.03;;
74042;SDS011;62384;53.600;10.040;2022-09-27T05:05:45;6.85;;;3.17;;
74042;SDS011;62384;53.600;10.040;2022-09-27T05:08:10;5.72;;;3.30;;
74042;SDS011;62384;53.600;10.040;2022-09-27T05:10:35;6.10;;;3.22;;
74042;SDS011;62384;53.600;10.040;2022-09-27T05:13:01;5.80;;;3.03;;
74042;SDS011;62384;53.600;10.040;2022-09-27T05:15:26;4.95;;;3.17;;
74042;SDS011;62384;53.600;10.040;2022-09-27T05:17:51;6.80;;;3.03;;
74042;SDS011;62384;53.600;10.040;2022-09-27T05:20:17;4.10;;;2.58;;
74042;SDS011;62384;53.600;10.040;2022-09-27T05:22:43;4.65;;;2.60;;
74042;SDS011;62384;53.600;10.040;2022-09-27T05:25:09;7.55;;;3.30;;
74042;SDS011;62384;53.600;10.040;2022-09-27T05:27:35;6.95;;;4.22;;
74042;SDS011;62384;53.600;10.040;2022-09-27T05:30:00;5.82;;;3.30;;
74042;SDS011;62384;53.600;10.040;2022-09-27T05:32:26;6.85;;;2.88;;
74042;SDS011;62384;53.600;10.040;2022-09-27T05:34:52;5.78;;;3.40;;
74042;SDS011;62384;53.600;10.040;2022-09-27T05:37:20;7.18;;;3.67;;
74042;SDS011;62384;53.600;10.040;2022-09-27T05:39:45;8.20;;;3.85;;
74042;SDS011;62384;53.600;10.040;2022-09-27T05:42:11;7.20;;;3.70;;
74042;SDS011;62384;53.600;10.040;2022-09-27T05:44:39;8.45;;;4.40;;
74042;SDS011;62384;53.600;10.040;2022-09-27T05:47:12;7.85;;;4.30;;
74042;SDS011;62384;53.600;10.040;2022-09-27T05:49:39;9.52;;;4.35;;
74042;SDS011;62384;53.600;10.040;2022-09-27T05:52:04;9.05;;;4.18;;
74042;SDS011;62384;53.600;10.040;2022-09-27T05:54:31;9.57;;;4.55;;
74042;SDS011;62384;53.600;10.040;2022-09-27T05:56:56;9.05;;;4.07;;
74042;SDS011;62384;53.600;10.040;2022-09-27T05:59:22;8.25;;;3.50;;
74042;SDS011;62384;53.600;10.040;2022-09-27T06:01:49;9.30;;;4.88;;
74042;SDS011;62384;53.600;10.040;2022-09-27T06:04:15;8.70;;;4.50;;
74042;SDS011;62384;53.600;10.040;2022-09-27T06:06:41;10.70;;;4.82;;
74042;SDS011;62384;53.600;10.040;2022-09-27T06:09:08;12.77;;;5.40;;
74042;SDS011;62384;53.600;10.040;2022-09-27T06:11:34;9.43;;;4.70;;
74042;SDS011;62384;53.600;10.040;2022-09-27T06:14:00;10.38;;;4.95;;
74042;SDS011;62384;53.600;10.040;2022-09-27T06:16:25;13.32;;;6.05;;
74042;SDS011;62384;53.600;10.040;2022-09-27T06:18:50;15.00;;;6.47;;
74042;SDS011;62384;53.600;10.040;2022-09-27T06:21:16;12.30;;;5.95;;
74042;SDS011;62384;53.600;10.040;2022-09-27T06:23:41;14.65;;;5.80;;
74042;SDS011;62384;53.600;10.040;2022-09-27T06:26:06;14.48;;;6.10;;
74042;SDS011;62384;53.600;10.040;2022-09-27T06:28:32;12.05;;;5.50;;
74042;SDS011;62384;53.600;10.040;2022-09-27T06:30:59;15.70;;;6.13;;
74042;SDS011;62384;53.600;10.040;2022-09-27T06:33:25;14.32;;;5.90;;
74042;SDS011;62384;53.600;10.040;2022-09-27T06:35:52;14.98;;;5.43;;
74042;SDS011;62384;53.600;10.040;2022-09-27T06:38:17;15.48;;;5.97;;
74042;SDS011;62384;53.600;10.040;2022-09-27T06:40:45;12.77;;;5.55;;
74042;SDS011;62384;53.600;10.040;2022-09-27T06:43:15;10.90;;;4.55;;
74042;SDS011;62384;53.600;10.040;2022-09-27T06:45:43;11.85;;;4.50;;
74042;SDS011;62384;53.600;10.040;2022-09-27T06:48:09;12.43;;;4.22;;
74042;SDS011;62384;53.600;10.040;2022-09-27T06:50:37;7.75;;;3.92;;
74042;SDS011;62384;53.600;10.040;2022-09-27T06:53:06;11.95;;;4.18;;
74042;SDS011;62384;53.600;10.040;2022-09-27T06:55:34;10.10;;;4.13;;
74042;SDS011;62384;53.600;10.040;2022-09-27T06:58:00;7.13;;;3.83;;
74042;SDS011;62384;53.600;10.040;2022-09-27T07:00:49;7.80;;;3.78;;
74042;SDS011;62384;53.600;10.040;2022-09-27T07:03:17;5.70;;;3.20;;
74042;SDS011;62384;53.600;10.040;2022-09-27T07:05:52;10.52;;;2.92;;
74042;SDS011;62384;53.600;10.040;2022-09-27T07:08:24;9.35;;;3.13;;
74042;SDS011;62384;53.600;10.040;2022-09-27T07:10:51;6.18;;;3.00;;
74042;SDS011;62384;53.600;10.040;2022-09-27T07:13:17;6.78;;;3.15;;
74042;SDS011;62384;53.600;10.040;2022-09-27T07:15:43;7.32;;;2.50;;
74042;SDS011;62384;53.600;10.040;2022-09-27T07:18:08;4.82;;;2.33;;
74042;SDS011;62384;53.600;10.040;2022-09-27T07:20:36;8.93;;;3.55;;
74042;SDS011;62384;53.600;10.040;2022-09-27T07:23:06;6.70;;;2.38;;
74042;SDS011;62384;53.600;10.040;2022-09-27T07:25:33;4.07;;;2.22;;
74042;SDS011;62384;53.600;10.040;2022-09-27T07:28:06;4.45;;;1.95;;
74042;SDS011;62384;53.600;10.040;2022-09-27T07:30:34;2.65;;;1.35;;
74042;SDS011;62384;53.600;10.040;2022-09-27T07:33:02;3.67;;;1.50;;
74042;SDS011;62384;53.600;10.040;2022-09-27T07:35:28;2.70;;;0.93;;
74042;SDS011;62384;53.600;10.040;2022-09-27T07:37:55;2.08;;;1.05;;
74042;SDS011;62384;53.600;10.040;2022-09-27T07:40:21;4.20;;;1.38;;
74042;SDS011;62384;53.600;10.040;2022-09-27T07:42:52;1.08;;;0.70;;
74042;SDS011;62384;53.600;10.040;2022-09-27T07:45:19;2.67;;;0.80;;
74042;SDS011;62384;53.600;10.040;2022-09-27T07:47:44;1.58;;;0.60;;
74042;SDS011;62384;53.600;10.040;2022-09-27T07:50:10;1.60;;;0.47;;
74042;SDS011;62384;53.600;10.040;2022-09-27T07:52:42;0.93;;;0.60;;
74042;SDS011;62384;53.600;10.040;2022-09-27T07:55:09;1.40;;;0.47;;
74042;SDS011;62384;53.600;10.040;2022-09-27T07:57:35;0.50;;;0.40;;
74042;SDS011;62384;53.600;10.040;2022-09-27T08:00:05;5.78;;;1.45;;
74042;SDS011;62384;53.600;10.040;2022-09-27T08:02:32;2.25;;;0.65;;
74042;SDS011;62384;53.600;10.040;2022-09-27T08:04:58;1.90;;;1.00;;
74042;SDS011;62384;53.600;10.040;2022-09-27T08:07:25;9.32;;;1.15;;
74042;SDS011;62384;53.600;10.040;2022-09-27T08:12:22;5.03;;;0.80;;
74042;SDS011;62384;53.600;10.040;2022-09-27T08:14:47;3.78;;;1.05;;
74042;SDS011;62384;53.600;10.040;2022-09-27T08:17:13;2.95;;;1.00;;
74042;SDS011;62384;53.600;10.040;2022-09-27T08:19:39;1.20;;;0.70;;
74042;SDS011;62384;53.600;10.040;2022-09-27T08:22:05;2.03;;;0.75;;
74042;SDS011;62384;53.600;10.040;2022-09-27T08:24:33;3.42;;;0.70;;
74042;SDS011;62384;53.600;10.040;2022-09-27T08:26:59;2.67;;;0.73;;
74042;SDS011;62384;53.600;10.040;2022-09-27T08:29:24;4.97;;;0.73;;
74042;SDS011;62384;53.600;10.040;2022-09-27T08:31:50;5.07;;;0.90;;
74042;SDS011;62384;53.600;10.040;2022-09-27T08:34:16;0.95;;;0.80;;
74042;SDS011;62384;53.600;10.040;2022-09-27T08:36:42;2.40;;;0.60;;
74042;SDS011;62384;53.600;10.040;2022-09-27T08:39:07;1.23;;;0.60;;
74042;SDS011;62384;53.600;10.040;2022-09-27T08:41:37;1.42;;;0.77;;
74042;SDS011;62384;53.600;10.040;2022-09-27T08:44:26;0.50;;;0.30;;
74042;SDS011;62384;53.600;10.040;2022-09-27T08:47:19;1.35;;;1.13;;
74042;SDS011;62384;53.600;10.040;2022-09-27T08:49:54;4.78;;;0.50;;
74042;SDS011;62384;53.600;10.040;2022-09-27T08:52:38;1.40;;;0.45;;
74042;SDS011;62384;53.600;10.040;2022-09-27T08:55:13;3.08;;;0.60;;
74042;SDS011;62384;53.600;10.040;2022-09-27T08:57:42;1.25;;;0.70;;
74042;SDS011;62384;53.600;10.040;2022-09-27T09:00:10;1.50;;;0.68;;
74042;SDS011;62384;53.600;10.040;2022-09-27T09:02:39;1.27;;;0.50;;
74042;SDS011;62384;53.600;10.040;2022-09-27T09:05:09;3.53;;;0.88;;
74042;SDS011;62384;53.600;10.040;2022-09-27T09:10:52;3.03;;;0.52;;
74042;SDS011;62384;53.600;10.040;2022-09-27T09:16:44;2.17;;;0.90;;
74042;SDS011;62384;53.600;10.040;2022-09-27T09:19:38;1.80;;;0.80;;
74042;SDS011;62384;53.600;10.040;2022-09-27T09:38:25;1.77;;;1.50;;
74042;SDS011;62384;53.600;10.040;2022-09-27T09:43:49;3.13;;;1.63;;
74042;SDS011;62384;53.600;10.040;2022-09-27T09:46:35;1.55;;;1.20;;
74042;SDS011;62384;53.600;10.040;2022-09-27T09:49:05;5.75;;;1.90;;
74042;SDS011;62384;53.600;10.040;2022-09-27T09:51:48;4.13;;;1.55;;
74042;SDS011;62384;53.600;10.040;2022-09-27T09:54:23;3.58;;;1.40;;
74042;SDS011;62384;53.600;10.040;2022-09-27T09:57:01;2.38;;;1.60;;
74042;SDS011;62384;53.600;10.040;2022-09-27T10:02:25;4.10;;;1.95;;
74042;SDS011;62384;53.600;10.040;2022-09-27T10:04:54;2.05;;;1.50;;
74042;SDS011;62384;53.600;10.040;2022-09-27T10:07:20;1.67;;;0.93;;
74042;SDS011;62384;53.600;10.040;2022-09-27T10:09:47;1.10;;;1.00;;
74042;SDS011;62384;53.600;10.040;2022-09-27T10:12:14;3.28;;;1.20;;
74042;SDS011;62384;53.600;10.040;2022-09-27T10:14:39;2.58;;;1.25;;
74042;SDS011;62384;53.600;10.040;2022-09-27T10:17:08;1.50;;;1.02;;
74042;SDS011;62384;53.600;10.040;2022-09-27T10:19:38;2.25;;;1.45;;
74042;SDS011;62384;53.600;10.040;2022-09-27T10:22:18;1.77;;;1.10;;
74042;SDS011;62384;53.600;10.040;2022-09-27T10:27:20;1.85;;;1.48;;
74042;SDS011;62384;53.600;10.040;2022-09-27T10:29:54;1.23;;;0.60;;
74042;SDS011;62384;53.600;10.040;2022-09-27T10:32:23;2.10;;;0.90;;
74042;SDS011;62384;53.600;10.040;2022-09-27T10:34:51;1.30;;;0.82;;
74042;SDS011;62384;53.600;10.040;2022-09-27T10:37:19;1.17;;;1.05;;
74042;SDS011;62384;53.600;10.040;2022-09-27T10:39:47;0.80;;;0.80;;
74042;SDS011;62384;53.600;10.040;2022-09-27T10:42:19;2.72;;;1.10;;
74042;SDS011;62384;53.600;10.040;2022-09-27T10:44:46;0.98;;;0.70;;
74042;SDS011;62384;53.600;10.040;2022-09-27T10:47:12;1.25;;;0.77;;
74042;SDS011;62384;53.600;10.040;2022-09-27T10:49:47;2.40;;;1.30;;
74042;SDS011;62384;53.600;10.040;2022-09-27T10:52:14;2.72;;;1.08;;
74042;SDS011;62384;53.600;10.040;2022-09-27T10:54:42;1.27;;;0.73;;
74042;SDS011;62384;53.600;10.040;2022-09-27T10:57:19;1.00;;;0.70;;
74042;SDS011;62384;53.600;10.040;2022-09-27T10:59:50;0.70;;;0.60;;
74042;SDS011;62384;53.600;10.040;2022-09-27T11:05:14;0.57;;;0.50;;
74042;SDS011;62384;53.600;10.040;2022-09-27T11:10:44;1.05;;;0.70;;
74042;SDS011;62384;53.600;10.040;2022-09-27T11:13:25;1.50;;;0.88;;
74042;SDS011;62384;53.600;10.040;2022-09-27T11:40:34;1.00;;;0.80;;
74042;SDS011;62384;53.600;10.040;2022-09-27T11:45:51;0.90;;;0.63;;
74042;SDS011;62384;53.600;10.040;2022-09-27T12:01:07;1.75;;;0.90;;
74042;SDS011;62384;53.600;10.040;2022-09-27T12:06:37;2.72;;;1.00;;
74042;SDS011;62384;53.600;10.040;2022-09-27T12:09:09;1.50;;;0.82;;
74042;SDS011;62384;53.600;10.040;2022-09-27T12:11:43;2.40;;;0.80;;
74042;SDS011;62384;53.600;10.040;2022-09-27T12:14:18;1.58;;;0.93;;
74042;SDS011;62384;53.600;10.040;2022-09-27T12:16:47;3.30;;;0.90;;
74042;SDS011;62384;53.600;10.040;2022-09-27T12:19:21;3.28;;;1.17;;
74042;SDS011;62384;53.600;10.040;2022-09-27T12:21:50;4.03;;;1.20;;
74042;SDS011;62384;53.600;10.040;2022-09-27T12:24:20;1.42;;;1.10;;
74042;SDS011;62384;53.600;10.040;2022-09-27T12:26:48;1.08;;;0.70;;
74042;SDS011;62384;53.600;10.040;2022-09-27T12:29:26;2.50;;;0.65;;
74042;SDS011;62384;53.600;10.040;2022-09-27T12:32:00;1.75;;;0.85;;
74042;SDS011;62384;53.600;10.040;2022-09-27T12:34:36;2.35;;;0.70;;
74042;SDS011;62384;53.600;10.040;2022-09-27T12:39:40;0.90;;;0.70;;
74042;SDS011;62384;53.600;10.040;2022-09-27T12:45:03;0.85;;;0.80;;
74042;SDS011;62384;53.600;10.040;2022-09-27T12:50:29;2.22;;;0.70;;
74042;SDS011;62384;53.600;10.040;2022-09-27T12:53:07;1.00;;;0.70;;
74042;SDS011;62384;53.600;10.040;2022-09-27T13:01:33;0.52;;;0.50;;
74042;SDS011;62384;53.600;10.040;2022-09-27T13:12:33;0.88;;;0.57;;
74042;SDS011;62384;53.600;10.040;2022-09-27T13:15:04;0.40;;;0.20;;
74042;SDS011;62384;53.600;10.040;2022-09-27T13:22:49;1.00;;;0.43;;
74042;SDS011;62384;53.600;10.040;2022-09-27T13:36:06;0.82;;;0.35;;
74042;SDS011;62384;53.600;10.040;2022-09-27T13:38:31;4.38;;;0.50;;
74042;SDS011;62384;53.600;10.040;2022-09-27T13:44:30;0.65;;;0.40;;
74042;SDS011;62384;53.600;10.040;2022-09-27T13:50:29;0.70;;;0.63;;
74042;SDS011;62384;53.600;10.040;2022-09-27T13:53:05;0.75;;;0.50;;
74042;SDS011;62384;53.600;10.040;2022-09-27T13:59:10;0.75;;;0.50;;
74042;SDS011;62384;53.600;10.040;2022-09-27T14:01:42;0.50;;;0.40;;
74042;SDS011;62384;53.600;10.040;2022-09-27T14:04:17;0.75;;;0.45;;
74042;SDS011;62384;53.600;10.040;2022-09-27T14:06:50;0.50;;;0.43;;
74042;SDS011;62384;53.600;10.040;2022-09-27T14:09:20;3.75;;;0.40;;
74042;SDS011;62384;53.600;10.040;2022-09-27T14:12:00;1.17;;;0.50;;
74042;SDS011;62384;53.600;10.040;2022-09-27T14:14:30;1.38;;;0.75;;
74042;SDS011;62384;53.600;10.040;2022-09-27T14:16:57;2.78;;;0.40;;
74042;SDS011;62384;53.600;10.040;2022-09-27T14:19:25;1.13;;;0.40;;
74042;SDS011;62384;53.600;10.040;2022-09-27T14:21:51;5.45;;;0.75;;
74042;SDS011;62384;53.600;10.040;2022-09-27T14:27:13;3.55;;;0.52;;
74042;SDS011;62384;53.600;10.040;2022-09-27T14:29:44;1.25;;;0.60;;
74042;SDS011;62384;53.600;10.040;2022-09-27T14:32:16;3.60;;;0.57;;
74042;SDS011;62384;53.600;10.040;2022-09-27T14:34:44;3.67;;;0.68;;
74042;SDS011;62384;53.600;10.040;2022-09-27T14:37:17;1.15;;;0.50;;
74042;SDS011;62384;53.600;10.040;2022-09-27T14:39:54;1.25;;;0.55;;
74042;SDS011;62384;53.600;10.040;2022-09-27T14:42:24;0.80;;;0.40;;
74042;SDS011;62384;53.600;10.040;2022-09-27T14:44:54;0.52;;;0.50;;
74042;SDS011;62384;53.600;10.040;2022-09-27T14:47:25;0.35;;;0.35;;
74042;SDS011;62384;53.600;10.040;2022-09-27T14:49:55;1.02;;;0.63;;
74042;SDS011;62384;53.600;10.040;2022-09-27T14:54:54;1.27;;;0.32;;
74042;SDS011;62384;53.600;10.040;2022-09-27T14:57:30;2.20;;;0.73;;
74042;SDS011;62384;53.600;10.040;2022-09-27T15:00:01;1.30;;;0.68;;
74042;SDS011;62384;53.600;10.040;2022-09-27T15:02:40;1.00;;;0.60;;
74042;SDS011;62384;53.600;10.040;2022-09-27T15:05:11;0.80;;;0.70;;
74042;SDS011;62384;53.600;10.040;2022-09-27T15:07:38;2.53;;;1.33;;
74042;SDS011;62384;53.600;10.040;2022-09-27T15:10:03;2.67;;;0.88;;
74042;SDS011;62384;53.600;10.040;2022-09-27T15:12:30;2.55;;;1.00;;
74042;SDS011;62384;53.600;10.040;2022-09-27T15:14:56;1.98;;;0.90;;
74042;SDS011;62384;53.600;10.040;2022-09-27T15:17:22;2.22;;;0.73;;
74042;SDS011;62384;53.600;10.040;2022-09-27T15:19:59;1.25;;;0.77;;
74042;SDS011;62384;53.600;10.040;2022-09-27T15:22:40;2.38;;;0.88;;
74042;SDS011;62384;53.600;10.040;2022-09-27T15:25:18;1.20;;;0.60;;
74042;SDS011;62384;53.600;10.040;2022-09-27T15:28:22;2.88;;;0.50;;
74042;SDS011;62384;53.600;10.040;2022-09-27T15:30:53;2.25;;;0.75;;
74042;SDS011;62384;53.600;10.040;2022-09-27T15:33:21;6.22;;;0.75;;
74042;SDS011;62384;53.600;10.040;2022-09-27T15:35:51;1.85;;;0.88;;
74042;SDS011;62384;53.600;10.040;2022-09-27T15:38:22;0.65;;;0.55;;
74042;SDS011;62384;53.600;10.040;2022-09-27T15:43:20;2.45;;;0.82;;
74042;SDS011;62384;53.600;10.040;2022-09-27T15:45:54;1.77;;;0.82;;
74042;SDS011;62384;53.600;10.040;2022-09-27T15:48:21;1.27;;;0.80;;
74042;SDS011;62384;53.600;10.040;2022-09-27T15:50:46;4.00;;;0.80;;
74042;SDS011;62384;53.600;10.040;2022-09-27T15:55:57;2.65;;;0.63;;
74042;SDS011;62384;53.600;10.040;2022-09-27T15:58:23;1.60;;;0.82;;
74042;SDS011;62384;53.600;10.040;2022-09-27T16:00:58;2.17;;;0.80;;
74042;SDS011;62384;53.600;10.040;2022-09-27T16:03:30;1.55;;;0.82;;
74042;SDS011;62384;53.600;10.040;2022-09-27T16:05:56;0.60;;;0.50;;
74042;SDS011;62384;53.600;10.040;2022-09-27T16:08:22;1.38;;;0.70;;
74042;SDS011;62384;53.600;10.040;2022-09-27T16:10:50;1.73;;;0.60;;
74042;SDS011;62384;53.600;10.040;2022-09-27T16:13:16;1.38;;;0.80;;
74042;SDS011;62384;53.600;10.040;2022-09-27T16:15:42;2.22;;;0.40;;
74042;SDS011;62384;53.600;10.040;2022-09-27T16:18:08;3.83;;;1.20;;
74042;SDS011;62384;53.600;10.040;2022-09-27T16:20:34;3.92;;;0.95;;
74042;SDS011;62384;53.600;10.040;2022-09-27T16:23:00;0.60;;;0.47;;
74042;SDS011;62384;53.600;10.040;2022-09-27T16:25:25;1.20;;;0.73;;
74042;SDS011;62384;53.600;10.040;2022-09-27T16:27:52;0.90;;;0.50;;
74042;SDS011;62384;53.600;10.040;2022-09-27T16:30:20;4.10;;;0.50;;
74042;SDS011;62384;53.600;10.040;2022-09-27T16:32:47;0.88;;;0.40;;
74042;SDS011;62384;53.600;10.040;2022-09-27T16:35:13;1.73;;;0.45;;
74042;SDS011;62384;53.600;10.040;2022-09-27T16:37:40;5.80;;;0.88;;
74042;SDS011;62384;53.600;10.040;2022-09-27T16:40:06;3.25;;;0.90;;
74042;SDS011;62384;53.600;10.040;2022-09-27T16:42:33;2.53;;;0.52;;
74042;SDS011;62384;53.600;10.040;2022-09-27T16:44:58;2.05;;;0.47;;
74042;SDS011;62384;53.600;10.040;2022-09-27T16:47:25;2.92;;;0.82;;
74042;SDS011;62384;53.600;10.040;2022-09-27T16:49:51;1.92;;;0.65;;
74042;SDS011;62384;53.600;10.040;2022-09-27T16:52:37;0.60;;;0.32;;
74042;SDS011;62384;53.600;10.040;2022-09-27T16:55:03;2.92;;;0.73;;
74042;SDS011;62384;53.600;10.040;2022-09-27T16:57:31;0.90;;;0.60;;
74042;SDS011;62384;53.600;10.040;2022-09-27T16:59:58;3.35;;;0.60;;
74042;SDS011;62384;53.600;10.040;2022-09-27T17:02:24;1.13;;;0.50;;
74042;SDS011;62384;53.600;10.040;2022-09-27T17:04:49;1.33;;;0.68;;
74042;SDS011;62384;53.600;10.040;2022-09-27T17:07:16;4.65;;;0.60;;
74042;SDS011;62384;53.600;10.040;2022-09-27T17:09:41;2.55;;;0.47;;
74042;SDS011;62384;53.600;10.040;2022-09-27T17:12:07;3.33;;;0.60;;
74042;SDS011;62384;53.600;10.040;2022-09-27T17:14:32;1.85;;;0.68;;
74042;SDS011;62384;53.600;10.040;2022-09-27T17:16:57;3.17;;;0.60;;
74042;SDS011;62384;53.600;10.040;2022-09-27T17:19:24;2.25;;;0.57;;
74042;SDS011;62384;53.600;10.040;2022-09-27T17:21:49;1.63;;;0.38;;
74042;SDS011;62384;53.600;10.040;2022-09-27T17:24:15;1.27;;;0.47;;
74042;SDS011;62384;53.600;10.040;2022-09-27T17:26:41;2.38;;;0.82;;
74042;SDS011;62384;53.600;10.040;2022-09-27T17:29:08;2.08;;;0.50;;
74042;SDS011;62384;53.600;10.040;2022-09-27T17:31:36;1.90;;;0.70;;
74042;SDS011;62384;53.600;10.040;2022-09-27T17:34:02;1.17;;;0.60;;
74042;SDS011;62384;53.600;10.040;2022-09-27T17:36:29;1.08;;;0.77;;
74042;SDS011;62384;53.600;10.040;2022-09-27T17:38:58;4.57;;;0.70;;
74042;SDS011;62384;53.600;10.040;2022-09-27T17:41:25;1.27;;;0.40;;
74042;SDS011;62384;53.600;10.040;2022-09-27T17:43:52;3.53;;;0.40;;
74042;SDS011;62384;53.600;10.040;2022-09-27T17:46:20;0.98;;;0.57;;
74042;SDS011;62384;53.600;10.040;2022-09-27T17:48:47;1.77;;;0.50;;
74042;SDS011;62384;53.600;10.040;2022-09-27T17:51:34;2.03;;;0.65;;